Time;durP1;ratioP1;P1;durP2;ratioP2;P2;SDS_P1;SDS_P2;PMS_P1;PMS_P2;Temp;Humidity;BMP_temperature;BMP_pressure;BME280_temperature;BME280_humidity;BME280_pressure;Samples;Min_cycle;Max_cycle;Signal;HPM_P1;HPM_P2
2022/01/19 00:00:40;;;;;;;7.03;3.67;;;;;;;-5.46;100.00;98578.75;5032926;28;20299;-68
2022/01/19 00:03:09;;;;;;;9.87;3.77;;;;;;;-5.48;100.00;98572.78;5031161;28;20128;-67
2022/01/19 00:05:36;;;;;;;11.60;3.60;;;;;;;-5.52;100.00;98567.63;5032193;28;20287;-67
2022/01/19 00:08:03;;;;;;;13.93;4.00;;;;;;;-5.53;100.00;98573.59;5032431;28;20296;-69
2022/01/19 00:10:30;;;;;;;9.20;3.80;;;;;;;-5.59;100.00;98574.41;5031959;28;20292;-66
2022/01/19 00:12:58;;;;;;;15.60;4.87;;;;;;;-5.59;100.00;98576.97;5032011;28;20830;-68
2022/01/19 00:15:27;;;;;;;14.53;3.97;;;;;;;-5.60;100.00;98576.97;5032208;28;20038;-68
2022/01/19 00:17:57;;;;;;;13.37;4.13;;;;;;;-5.58;100.00;98572.69;5030634;28;20850;-68
2022/01/19 00:20:28;;;;;;;13.43;4.53;;;;;;;-5.57;100.00;98561.59;5033587;28;20379;-68
2022/01/19 00:22:55;;;;;;;13.70;4.10;;;;;;;-5.56;100.00;98568.44;5033072;28;20292;-68
2022/01/19 00:25:22;;;;;;;13.17;4.63;;;;;;;-5.57;100.00;98559.06;5031721;28;20315;-67
2022/01/19 00:27:50;;;;;;;10.47;5.07;;;;;;;-5.56;100.00;98568.44;5023774;28;20364;-68
2022/01/19 00:30:17;;;;;;;19.13;5.97;;;;;;;-5.57;100.00;98570.13;5012083;28;20120;-68
2022/01/19 00:32:45;;;;;;;10.87;4.37;;;;;;;-5.62;100.00;98570.94;5011606;28;20289;-67
2022/01/19 00:35:13;;;;;;;15.57;4.90;;;;;;;-5.65;100.00;98573.50;5011897;28;20288;-69
2022/01/19 00:37:43;;;;;;;12.50;4.47;;;;;;;-5.65;100.00;98573.50;5011364;28;20635;-68
2022/01/19 00:40:14;;;;;;;15.57;5.70;;;;;;;-5.66;100.00;98579.47;4994386;28;20030;-68
2022/01/19 00:42:42;;;;;;;11.57;4.90;;;;;;;-5.69;100.00;98572.63;5011730;28;20372;-68
2022/01/19 00:45:10;;;;;;;16.40;6.60;;;;;;;-5.70;100.00;98580.28;5010518;28;20289;-69
2022/01/19 00:47:37;;;;;;;12.23;4.87;;;;;;;-5.73;100.00;98573.44;5013278;28;20038;-68
2022/01/19 00:50:08;;;;;;;17.03;6.77;;;;;;;-5.75;100.00;98574.28;5029037;28;20292;-68
2022/01/19 00:52:36;;;;;;;16.10;6.17;;;;;;;-5.74;100.00;98571.72;5031481;28;20319;-68
2022/01/19 00:55:09;;;;;;;15.17;5.10;;;;;;;-5.72;100.00;98580.28;5029829;28;20065;-68
2022/01/19 00:57:37;;;;;;;15.35;5.20;;;;;;;-5.62;100.00;98581.19;5032795;28;20760;-68
2022/01/19 01:00:05;;;;;;;17.13;8.03;;;;;;;-5.59;100.00;98568.41;5029872;28;20041;-68
2022/01/19 01:02:32;;;;;;;16.00;6.63;;;;;;;-5.62;100.00;98568.38;5023468;28;20757;-68
2022/01/19 01:04:59;;;;;;;16.67;5.87;;;;;;;-5.65;100.00;98569.22;5011091;28;20383;-68
2022/01/19 01:07:27;;;;;;;15.83;5.27;;;;;;;-5.69;100.00;98557.25;5011445;28;20701;-68
2022/01/19 01:09:54;;;;;;;18.30;6.97;;;;;;;-5.71;100.00;98552.94;5011109;28;20284;-68
2022/01/19 01:12:25;;;;;;;15.50;6.40;;;;;;;-5.76;100.00;98540.09;5011214;28;20366;-68
2022/01/19 01:20:21;;;;;;;20.43;7.60;;;;;;;-5.77;100.00;98537.53;5027034;28;20367;-68
2022/01/19 01:22:49;;;;;;;15.17;6.37;;;;;;;-5.71;100.00;98540.13;5016083;28;20295;-67
2022/01/19 01:25:16;;;;;;;22.93;7.40;;;;;;;-5.65;100.00;98532.50;5030351;28;20049;-68
2022/01/19 01:27:44;;;;;;;27.90;7.07;;;;;;;-5.62;100.00;98546.19;5030647;28;20351;-69
2022/01/19 01:30:12;;;;;;;17.67;6.67;;;;;;;-5.60;100.00;98536.81;5029460;28;20088;-69
2022/01/19 01:32:39;;;;;;;18.03;7.23;;;;;;;-5.54;100.00;98533.44;5029586;28;20764;-69
2022/01/19 01:35:08;;;;;;;19.00;7.40;;;;;;;-5.57;100.00;98524.00;5030382;28;20053;-68
2022/01/19 01:37:35;;;;;;;15.57;7.10;;;;;;;-5.58;100.00;98524.84;5029300;28;20300;-68
2022/01/19 01:40:04;;;;;;;23.87;7.93;;;;;;;-5.57;100.00;98521.44;5029013;28;20300;-68
2022/01/19 01:42:31;;;;;;;22.00;10.00;;;;;;;-5.51;100.00;98525.75;5030390;28;20315;-68
2022/01/19 01:45:01;;;;;;;22.47;9.20;;;;;;;-5.46;100.00;98513.84;5029221;28;20034;-68
2022/01/19 01:47:32;;;;;;;21.53;8.93;;;;;;;-5.37;100.00;98506.19;5046124;28;20311;-68
2022/01/19 01:55:45;;;;;;;24.03;9.73;;;;;;;-5.37;100.00;98486.56;4938465;28;20054;-68
2022/01/19 01:58:12;;;;;;;25.10;12.73;;;;;;;-5.35;100.00;98489.97;4984273;28;20049;-69
2022/01/19 02:00:44;;;;;;;24.83;10.23;;;;;;;-5.30;100.00;98484.88;5009460;28;20044;-69
2022/01/19 02:03:12;;;;;;;22.57;10.50;;;;;;;-5.29;100.00;98486.56;5028583;28;20077;-68
2022/01/19 02:05:53;;;;;;;28.60;10.03;;;;;;;-5.25;100.00;98498.56;5030400;28;20063;-69
2022/01/19 02:08:22;;;;;;;25.70;10.93;;;;;;;-5.23;100.00;98502.00;5030147;28;20392;-68
2022/01/19 02:11:05;;;;;;;26.67;8.73;;;;;;;-5.19;100.00;98502.03;5028810;28;20057;-68
2022/01/19 02:16:26;;;;;;;31.27;13.33;;;;;;;-5.06;100.00;98508.09;5028587;28;20526;-69
2022/01/19 02:21:44;;;;;;;34.83;14.60;;;;;;;-4.86;100.00;98514.16;5030100;28;20132;-69
2022/01/19 02:24:14;;;;;;;33.67;13.30;;;;;;;-4.90;100.00;98509.84;5022660;28;20107;-67
2022/01/19 02:26:57;;;;;;;33.70;13.57;;;;;;;-4.83;100.00;98507.28;5030488;28;20045;-69
2022/01/19 02:40:39;;;;;;;42.13;15.60;;;;;;;-4.54;100.00;98492.84;5032395;28;20059;-68
2022/01/19 02:43:19;;;;;;;38.20;15.67;;;;;;;-4.51;100.00;98492.03;5032225;28;20041;-68
2022/01/19 02:51:17;;;;;;;38.07;16.73;;;;;;;-4.26;100.00;98478.34;5032338;28;20410;-67
2022/01/19 02:53:49;;;;;;;41.20;17.50;;;;;;;-4.22;100.00;98475.78;5034361;28;20060;-68
2022/01/19 02:56:22;;;;;;;42.97;17.40;;;;;;;-4.14;100.00;98462.97;5032805;28;20037;-68
2022/01/19 02:58:58;;;;;;;45.65;18.17;;;;;;;-4.13;100.00;98462.09;5033153;28;20060;-68
2022/01/19 03:09:40;;;;;;;58.77;21.97;;;;;;;-3.94;100.00;98458.66;5032129;28;20410;-68
2022/01/19 03:12:08;;;;;;;62.57;23.07;;;;;;;-3.87;100.00;98447.53;5032554;28;20494;-68
2022/01/19 03:14:36;;;;;;;69.80;24.20;;;;;;;-3.85;100.00;98448.38;5033975;28;20119;-69
2022/01/19 03:17:04;;;;;;;62.70;22.43;;;;;;;-3.78;100.00;98450.06;5030173;28;20045;-69
2022/01/19 03:19:31;;;;;;;65.93;22.87;;;;;;;-3.69;100.00;98456.06;5012137;28;20041;-67
2022/01/19 03:22:00;;;;;;;73.00;22.73;;;;;;;-3.72;100.00;98452.66;5012233;28;20042;-69
2022/01/19 03:24:37;;;;;;;75.67;25.30;;;;;;;-3.66;100.00;98457.78;5013229;28;20046;-68
2022/01/19 03:27:07;;;;;;;58.67;21.57;;;;;;;-3.64;100.00;98467.22;5044715;28;20042;-69
2022/01/19 03:29:41;;;;;;;63.73;21.80;;;;;;;-3.64;100.00;98467.22;5012269;28;20733;-68
2022/01/19 03:32:09;;;;;;;60.63;23.13;;;;;;;-3.65;100.00;98475.75;5013848;28;20056;-67
2022/01/19 03:34:36;;;;;;;61.70;20.97;;;;;;;-3.63;100.00;98468.91;5031911;28;20052;-68
2022/01/19 03:37:06;;;;;;;59.60;20.50;;;;;;;-3.63;100.00;98471.47;5031016;28;20119;-68
2022/01/19 03:39:33;;;;;;;60.63;21.87;;;;;;;-3.64;100.00;98472.34;5011741;28;20048;-68
2022/01/19 03:42:01;;;;;;;62.83;25.27;;;;;;;-3.59;100.00;98464.59;4996706;28;20049;-68
2022/01/19 03:44:30;;;;;;;62.20;23.47;;;;;;;-3.56;100.00;98462.03;5013244;28;20056;-68
2022/01/19 03:47:00;;;;;;;53.47;20.43;;;;;;;-3.52;100.00;98454.31;5014451;28;20095;-69
2022/01/19 03:49:33;;;;;;;53.10;19.67;;;;;;;-3.47;100.00;98450.00;5033604;28;20033;-69
2022/01/19 03:52:02;;;;;;;51.60;19.23;;;;;;;-3.44;100.00;98444.03;5031218;28;20452;-68
2022/01/19 03:54:35;;;;;;;52.90;19.67;;;;;;;-3.45;100.00;98443.16;5031547;28;20054;-69
2022/01/19 03:57:03;;;;;;;54.80;20.53;;;;;;;-3.40;100.00;98438.03;5032274;28;20087;-67
2022/01/19 03:59:33;;;;;;;49.97;19.37;;;;;;;-3.43;100.00;98450.88;5031090;28;20494;-68
2022/01/19 04:02:01;;;;;;;35.03;12.33;;;;;;;-3.45;100.00;98439.72;5032262;28;20137;-68
2022/01/19 04:07:09;;;;;;;52.70;18.37;;;;;;;-3.45;100.00;98440.59;5031506;28;20045;-68
2022/01/19 04:09:41;;;;;;;48.60;17.13;;;;;;;-3.39;100.00;98426.84;5030716;28;20041;-68
2022/01/19 04:12:12;;;;;;;43.27;18.40;;;;;;;-3.42;100.00;98416.56;5032261;28;20124;-68
2022/01/19 04:14:41;;;;;;;49.50;17.87;;;;;;;-3.38;100.00;98426.00;5030749;28;20054;-68
2022/01/19 04:17:11;;;;;;;45.00;16.67;;;;;;;-3.36;100.00;98422.53;5031910;28;20091;-68
2022/01/19 04:19:43;;;;;;;41.73;14.77;;;;;;;-3.38;100.00;98421.72;5031963;28;20068;-68
2022/01/19 04:22:19;;;;;;;55.03;17.90;;;;;;;-3.34;100.00;98419.97;5030729;28;20037;-69
2022/01/19 04:24:48;;;;;;;42.80;15.27;;;;;;;-3.30;100.00;98419.97;5030523;28;20046;-68
2022/01/19 04:27:34;;;;;;;41.80;16.03;;;;;;;-3.29;100.00;98418.25;5030709;28;20045;-68
2022/01/19 04:30:10;;;;;;;41.60;15.87;;;;;;;-3.30;100.00;98408.81;5030506;28;20050;-68
2022/01/19 04:33:05;;;;;;;38.27;15.27;;;;;;;-3.20;100.00;98407.91;5030700;28;20048;-68
2022/01/19 04:35:49;;;;;;;37.63;15.53;;;;;;;-3.18;100.00;98406.22;5032456;28;20041;-68
2022/01/19 04:44:34;;;;;;;35.90;14.93;;;;;;;-3.17;100.00;98411.34;5030451;28;20128;-69
2022/01/19 05:03:43;;;;;;;44.97;15.40;;;;;;;-3.17;100.00;98395.03;5032491;28;20387;-67
2022/01/19 05:06:22;;;;;;;34.97;11.97;;;;;;;-3.17;100.00;98400.19;5031045;28;20240;-69
2022/01/19 05:09:05;;;;;;;32.60;13.07;;;;;;;-3.18;100.00;98396.75;5013640;28;20045;-70
2022/01/19 05:14:18;;;;;;;28.93;13.17;;;;;;;-3.15;100.00;98367.56;5029794;28;20065;-69
2022/01/19 05:16:45;;;;;;;36.03;13.20;;;;;;;-3.17;100.00;98388.19;5029434;28;20064;-69
2022/01/19 05:19:15;;;;;;;29.03;12.27;;;;;;;-3.17;100.00;98364.19;5029842;28;22009;-68
2022/01/19 05:21:45;;;;;;;22.83;10.30;;;;;;;-3.25;100.00;98374.50;5029327;28;20056;-68
2022/01/19 05:24:12;;;;;;;24.73;10.10;;;;;;;-3.29;100.00;98380.50;5031772;28;20045;-68
2022/01/19 05:26:45;;;;;;;21.53;9.83;;;;;;;-3.28;100.00;98387.38;5031000;28;20049;-68
2022/01/19 05:29:17;;;;;;;23.50;9.93;;;;;;;-3.25;100.00;98391.66;5031317;28;20036;-69
2022/01/19 05:31:44;;;;;;;17.47;8.33;;;;;;;-3.26;100.00;98388.22;5031017;28;20045;-67
2022/01/19 05:34:11;;;;;;;23.17;7.87;;;;;;;-3.26;100.00;98384.78;5031183;28;20045;-70
2022/01/19 05:36:50;;;;;;;19.37;7.93;;;;;;;-3.26;100.00;98379.63;5029351;28;20053;-69
2022/01/19 05:39:52;;;;;;;19.30;8.63;;;;;;;-3.18;100.00;98385.63;5043142;28;20049;-71
2022/01/19 05:42:39;;;;;;;18.00;8.60;;;;;;;-3.22;100.00;98381.38;5007875;28;20498;-69
2022/01/19 05:45:07;;;;;;;19.07;8.47;;;;;;;-3.23;100.00;98377.06;5024375;28;20144;-69
2022/01/19 05:47:34;;;;;;;25.57;9.70;;;;;;;-3.17;100.00;98372.75;5016861;28;20057;-69
2022/01/19 05:50:02;;;;;;;22.43;8.60;;;;;;;-3.20;100.00;98357.34;5018473;28;20816;-68
2022/01/19 05:52:31;;;;;;;22.37;9.03;;;;;;;-3.20;100.00;98357.34;5012971;28;20453;-69
2022/01/19 05:54:58;;;;;;;18.67;8.43;;;;;;;-3.18;100.00;98358.16;5017104;28;20042;-68
2022/01/19 05:57:25;;;;;;;20.30;8.67;;;;;;;-3.20;100.00;98364.19;5014956;28;20046;-68
2022/01/19 05:59:52;;;;;;;17.27;9.03;;;;;;;-3.23;100.00;98357.34;5022506;28;20046;-68
2022/01/19 06:02:20;;;;;;;21.37;9.20;;;;;;;-3.17;100.00;98348.75;5015923;28;20398;-68
2022/01/19 06:04:47;;;;;;;23.10;8.40;;;;;;;-3.19;100.00;98359.03;5011181;28;20057;-68
2022/01/19 06:07:29;;;;;;;29.30;11.23;;;;;;;-3.21;100.00;98354.75;5018631;28;20040;-68
2022/01/19 06:13:07;;;;;;;39.03;9.30;;;;;;;-3.15;100.00;98355.56;5015179;28;20050;-69
2022/01/19 06:15:34;;;;;;;24.70;8.73;;;;;;;-3.19;100.00;98359.03;4999320;28;20044;-69
2022/01/19 06:18:02;;;;;;;25.83;10.00;;;;;;;-3.13;100.00;98368.44;5017175;28;20391;-68
2022/01/19 06:20:30;;;;;;;30.87;11.60;;;;;;;-3.14;100.00;98369.31;5012842;28;20741;-68
2022/01/19 06:22:57;;;;;;;28.27;10.83;;;;;;;-3.15;100.00;98375.28;5011381;28;20081;-68
2022/01/19 06:25:26;;;;;;;27.87;11.37;;;;;;;-3.18;100.00;98373.59;5014318;28;20052;-68
2022/01/19 06:27:54;;;;;;;29.60;11.30;;;;;;;-3.06;100.00;98372.69;5016250;28;20038;-69
2022/01/19 06:30:22;;;;;;;32.27;12.03;;;;;;;-3.02;100.00;98371.81;5014339;28;20045;-68
2022/01/19 06:32:49;;;;;;;25.30;10.47;;;;;;;-2.93;100.00;98361.44;5014619;28;20055;-69
2022/01/19 06:35:17;;;;;;;27.60;12.03;;;;;;;-2.93;100.00;98362.31;5019212;28;20055;-69
2022/01/19 06:38:02;;;;;;;25.40;9.80;;;;;;;-2.94;100.00;98359.75;5017092;28;20057;-69
2022/01/19 06:40:49;;;;;;;13.80;6.67;;;;;;;-3.03;100.00;98354.66;5017076;28;20042;-68
2022/01/19 06:43:16;;;;;;;20.23;7.10;;;;;;;-3.05;100.00;98351.25;5013998;28;20052;-68
2022/01/19 06:45:43;;;;;;;25.83;9.53;;;;;;;-2.99;100.00;98354.63;5015986;28;20049;-70
2022/01/19 06:48:10;;;;;;;17.30;7.47;;;;;;;-2.89;100.00;98355.41;5022338;28;20045;-69
2022/01/19 06:50:38;;;;;;;26.10;9.67;;;;;;;-2.84;100.00;98345.97;5010109;28;20096;-70
2022/01/19 06:53:07;;;;;;;24.40;11.10;;;;;;;-2.75;100.00;98341.59;5014479;28;20121;-67
2022/01/19 06:55:35;;;;;;;20.70;9.47;;;;;;;-2.78;100.00;98349.34;5012293;28;20062;-69
2022/01/19 06:58:05;;;;;;;24.93;9.97;;;;;;;-2.85;100.00;98345.09;5021693;28;20133;-69
2022/01/19 07:00:51;;;;;;;17.50;7.37;;;;;;;-2.97;100.00;98342.63;5026559;28;20044;-69
2022/01/19 07:03:38;;;;;;;18.77;7.87;;;;;;;-2.93;100.00;98346.00;5018731;28;20049;-69
2022/01/19 07:06:18;;;;;;;23.30;9.10;;;;;;;-2.93;100.00;98341.72;5023424;28;20069;-68
2022/01/19 07:09:08;;;;;;;18.57;8.87;;;;;;;-2.76;100.00;98339.03;5015836;28;20057;-69
2022/01/19 07:11:36;;;;;;;22.00;8.27;;;;;;;-2.64;100.00;98349.25;5024177;28;20076;-68
2022/01/19 07:14:05;;;;;;;15.53;7.00;;;;;;;-2.52;100.00;98338.88;5026851;28;20049;-68
2022/01/19 07:16:33;;;;;;;20.60;7.83;;;;;;;-2.61;100.00;98316.63;5019146;28;20069;-69
2022/01/19 07:19:00;;;;;;;23.63;9.53;;;;;;;-2.67;100.00;98314.06;5015811;28;20034;-69
2022/01/19 07:21:27;;;;;;;25.93;7.77;;;;;;;-2.59;99.98;98324.34;5016786;28;20460;-70
2022/01/19 07:23:57;;;;;;;16.93;7.07;;;;;;;-2.56;99.54;98317.44;5005153;28;20042;-68
2022/01/19 07:26:24;;;;;;;21.90;8.03;;;;;;;-2.76;99.07;98314.16;5030233;28;20482;-69
2022/01/19 07:28:51;;;;;;;18.60;8.40;;;;;;;-2.86;99.00;98311.66;5014910;28;20049;-68
2022/01/19 07:31:20;;;;;;;18.53;9.50;;;;;;;-3.05;98.93;98308.34;5013038;28;20042;-68
2022/01/19 07:33:49;;;;;;;19.37;7.90;;;;;;;-3.14;99.33;98315.28;5011207;28;20077;-69
2022/01/19 07:36:17;;;;;;;25.13;9.80;;;;;;;-3.16;99.06;98309.28;5017303;28;20049;-70
2022/01/19 07:38:44;;;;;;;23.30;9.40;;;;;;;-3.18;99.49;98319.56;5023341;28;20064;-68
2022/01/19 07:41:11;;;;;;;17.37;8.00;;;;;;;-3.00;98.90;98321.16;5020236;28;20049;-69
2022/01/19 07:43:44;;;;;;;22.02;9.10;;;;;;;-2.75;98.78;98302.13;5026057;28;20079;-67
2022/01/19 07:46:28;;;;;;;18.47;8.70;;;;;;;-2.75;97.50;98300.41;5025721;28;20045;-69
2022/01/19 07:49:13;;;;;;;20.10;8.90;;;;;;;-2.75;97.57;98315.00;5022442;28;20380;-69
2022/01/19 07:52:15;;;;;;;25.03;10.10;;;;;;;-2.82;97.03;98306.47;5026462;28;20049;-68
2022/01/19 07:55:02;;;;;;;20.83;8.00;;;;;;;-2.71;97.20;98308.97;5022169;28;20137;-67
2022/01/19 07:57:50;;;;;;;18.77;9.97;;;;;;;-2.68;97.37;98307.22;5035789;28;20049;-68
2022/01/19 08:00:38;;;;;;;25.70;8.60;;;;;;;-2.74;97.32;98293.56;5024785;28;20050;-67
2022/01/19 08:03:27;;;;;;;20.40;8.20;;;;;;;-2.61;97.48;98284.84;5021947;28;20050;-71
2022/01/19 08:06:00;;;;;;;25.60;9.43;;;;;;;-2.56;97.28;98301.09;5018111;28;20056;-70
2022/01/19 08:08:29;;;;;;;22.20;9.27;;;;;;;-2.57;96.20;98276.22;5020440;28;20060;-71
2022/01/19 08:10:56;;;;;;;19.50;9.20;;;;;;;-2.58;96.60;98282.25;5022343;28;20433;-70
2022/01/19 08:13:30;;;;;;;25.83;8.90;;;;;;;-2.58;96.65;98287.41;5020214;28;20057;-71
2022/01/19 08:15:59;;;;;;;23.60;8.87;;;;;;;-2.57;96.98;98283.94;5021301;28;20556;-71
2022/01/19 08:18:28;;;;;;;26.53;10.00;;;;;;;-2.56;96.80;98288.22;5022831;28;20486;-70
2022/01/19 08:20:55;;;;;;;24.20;10.47;;;;;;;-2.78;96.78;98248.94;5018247;28;20045;-71
2022/01/19 08:23:27;;;;;;;21.70;9.47;;;;;;;-2.83;97.46;98280.75;5017973;28;20042;-70
2022/01/19 08:25:57;;;;;;;21.83;8.13;;;;;;;-2.71;97.42;98270.34;5020819;28;20052;-71
2022/01/19 08:28:24;;;;;;;28.10;9.57;;;;;;;-2.45;96.94;98276.97;5020825;28;20410;-71
2022/01/19 08:30:51;;;;;;;27.67;8.67;;;;;;;-2.37;95.62;98276.91;5020622;28;20068;-72
2022/01/19 08:33:45;;;;;;;20.80;9.00;;;;;;;-2.01;95.66;98270.53;5021249;28;20069;-70
2022/01/19 08:36:18;;;;;;;24.77;9.13;;;;;;;-2.13;94.19;98273.22;5020859;28;20052;-71
2022/01/19 08:39:16;;;;;;;23.77;9.87;;;;;;;-2.20;95.14;98271.59;4990021;28;20055;-71
2022/01/19 08:41:45;;;;;;;27.90;11.10;;;;;;;-2.20;95.24;98277.59;4982785;28;20439;-72
2022/01/19 08:44:12;;;;;;;20.73;9.47;;;;;;;-2.29;95.06;98265.66;4980026;28;20053;-71
2022/01/19 08:46:41;;;;;;;24.97;9.83;;;;;;;-2.26;94.39;98254.47;4981276;28;20043;-71
2022/01/19 08:49:16;;;;;;;22.50;9.90;;;;;;;-2.30;95.00;98250.22;4981859;28;20043;-71
2022/01/19 08:52:06;;;;;;;26.90;9.77;;;;;;;-2.36;94.52;98247.69;4988768;28;20058;-72
2022/01/19 08:54:40;;;;;;;23.93;9.53;;;;;;;-2.47;94.21;98254.69;4981175;28;20126;-71
2022/01/19 08:57:11;;;;;;;21.60;9.20;;;;;;;-2.35;94.82;98263.16;4986586;28;20496;-70
2022/01/19 08:59:38;;;;;;;20.00;8.80;;;;;;;-2.30;94.40;98258.78;4982386;28;20057;-70
2022/01/19 09:02:06;;;;;;;19.27;9.80;;;;;;;-2.23;93.60;98248.44;4984098;28;20074;-70
2022/01/19 09:04:34;;;;;;;23.57;9.73;;;;;;;-2.16;93.80;98245.75;4981590;28;20039;-71
2022/01/19 09:07:01;;;;;;;24.00;7.90;;;;;;;-2.08;93.45;98254.25;4980512;28;20050;-65
2022/01/19 09:09:28;;;;;;;28.07;10.43;;;;;;;-2.20;92.66;98245.84;4979393;28;20054;-65
2022/01/19 09:11:56;;;;;;;26.93;11.87;;;;;;;-2.17;92.79;98250.94;4981340;28;20403;-68
2022/01/19 09:14:23;;;;;;;23.23;10.17;;;;;;;-1.96;92.52;98248.13;4980859;28;20043;-68
2022/01/19 09:16:52;;;;;;;29.20;10.77;;;;;;;-1.84;92.45;98235.94;4979823;28;20437;-66
2022/01/19 09:19:21;;;;;;;31.67;12.27;;;;;;;-1.83;90.80;98239.38;4979918;28;20555;-67
2022/01/19 09:21:52;;;;;;;24.40;10.30;;;;;;;-1.93;91.23;98230.91;4990036;28;20057;-67
2022/01/19 09:24:19;;;;;;;32.17;12.17;;;;;;;-2.00;91.16;98226.69;4989467;28;20042;-66
2022/01/19 09:26:46;;;;;;;23.73;10.00;;;;;;;-1.96;91.25;98218.06;4990818;28;20164;-67
2022/01/19 09:29:14;;;;;;;20.73;9.80;;;;;;;-1.95;91.27;98219.75;4976553;28;20053;-67
2022/01/19 09:31:43;;;;;;;32.07;12.63;;;;;;;-1.80;91.19;98218.69;4986057;28;20042;-67
2022/01/19 09:34:14;;;;;;;29.13;10.77;;;;;;;-1.81;90.76;98220.44;4989041;28;20046;-67
2022/01/19 09:36:46;;;;;;;23.03;9.23;;;;;;;-1.91;90.26;98211.09;4989097;28;20047;-68
2022/01/19 09:39:17;;;;;;;27.30;10.30;;;;;;;-1.88;90.86;98220.53;5012733;28;20462;-68
2022/01/19 09:41:46;;;;;;;20.10;8.63;;;;;;;-1.97;90.77;98221.47;5012236;28;20046;-68
2022/01/19 09:44:13;;;;;;;21.27;9.10;;;;;;;-1.95;90.87;98214.59;5026977;28;20109;-68
2022/01/19 09:46:40;;;;;;;21.03;8.00;;;;;;;-1.95;90.89;98218.88;5011522;28;20132;-68
2022/01/19 09:49:08;;;;;;;22.17;8.83;;;;;;;-2.02;91.09;98218.13;5020296;28;20064;-68
2022/01/19 09:51:35;;;;;;;22.87;8.47;;;;;;;-2.04;91.27;98217.31;5021004;28;20095;-67
2022/01/19 09:54:02;;;;;;;20.13;7.63;;;;;;;-1.97;91.32;98211.16;5013727;28;20040;-68
2022/01/19 09:56:33;;;;;;;16.47;6.23;;;;;;;-1.97;91.80;98213.75;5011322;28;20073;-65
2022/01/19 09:59:00;;;;;;;15.97;6.27;;;;;;;-2.03;91.60;98208.69;5011312;28;20054;-66
2022/01/19 10:01:27;;;;;;;15.37;6.70;;;;;;;-2.03;91.62;98210.41;5022116;28;20571;-67
2022/01/19 10:03:54;;;;;;;17.07;7.13;;;;;;;-2.06;92.35;98195.81;5027595;28;20083;-66
2022/01/19 10:06:23;;;;;;;19.53;8.13;;;;;;;-2.08;92.65;98189.81;5015022;28;20478;-68
2022/01/19 10:08:54;;;;;;;14.10;5.03;;;;;;;-2.16;92.95;98194.22;5027990;28;20613;-67
2022/01/19 10:11:28;;;;;;;17.17;8.33;;;;;;;-2.19;92.89;98178.78;5028351;28;20136;-68
2022/01/19 10:17:00;;;;;;;14.13;6.37;;;;;;;-1.77;92.46;98188.59;5020334;28;20042;-69
2022/01/19 10:19:31;;;;;;;15.80;7.20;;;;;;;-1.68;91.67;98174.72;5027932;28;20048;-69
2022/01/19 10:22:10;;;;;;;15.57;7.00;;;;;;;-1.67;91.72;98164.38;5026380;28;20060;-71
2022/01/19 10:24:46;;;;;;;18.57;6.27;;;;;;;-1.54;91.67;98168.47;5014477;28;20513;-69
2022/01/19 10:27:26;;;;;;;17.33;6.97;;;;;;;-1.59;90.88;98178.03;5027292;28;20188;-70
2022/01/19 10:29:56;;;;;;;20.40;7.43;;;;;;;-1.52;92.13;98186.53;5027403;28;20471;-68
2022/01/19 10:32:25;;;;;;;18.27;7.03;;;;;;;-1.71;90.91;98175.63;5023336;28;20402;-73
2022/01/19 10:34:53;;;;;;;25.50;10.73;;;;;;;-1.87;91.45;98186.16;5023835;28;20049;-75
2022/01/19 10:37:25;;;;;;;16.23;6.77;;;;;;;-1.94;92.21;98179.38;5018787;28;20049;-71
2022/01/19 10:39:57;;;;;;;15.18;7.00;;;;;;;-1.85;91.49;98190.41;5011889;28;20061;-72
2022/01/19 10:42:27;;;;;;;15.77;6.40;;;;;;;-1.74;91.76;98173.06;5024878;28;20053;-73
2022/01/19 10:44:58;;;;;;;16.73;6.60;;;;;;;-1.59;91.60;98174.56;5022050;28;20041;-69
2022/01/19 10:47:49;;;;;;;17.37;6.67;;;;;;;-1.49;90.89;98169.25;5026191;28;20077;-70
2022/01/19 10:50:21;;;;;;;16.17;6.17;;;;;;;-1.70;91.14;98156.69;5025884;28;20079;-72
2022/01/19 10:52:48;;;;;;;16.40;6.33;;;;;;;-1.72;91.14;98155.00;5019617;28;20057;-70
2022/01/19 10:55:26;;;;;;;17.37;6.57;;;;;;;-1.49;91.58;98145.19;5023706;28;20046;-64
2022/01/19 10:57:55;;;;;;;16.93;6.83;;;;;;;-1.28;90.91;98156.03;5028379;28;20057;-70
2022/01/19 11:00:26;;;;;;;27.90;14.17;;;;;;;-1.26;90.62;98131.06;5025647;28;20368;-67
2022/01/19 11:02:56;;;;;;;13.97;6.40;;;;;;;-1.12;90.48;98142.03;5028736;28;20133;-67
2022/01/19 11:05:45;;;;;;;19.17;6.73;;;;;;;-1.06;90.21;98128.19;5022232;28;20064;-66
2022/01/19 11:08:13;;;;;;;23.23;6.77;;;;;;;-1.23;90.49;98130.16;5028790;28;20051;-66
2022/01/19 11:10:40;;;;;;;13.17;5.90;;;;;;;-1.17;90.97;98125.75;5027674;28;20131;-67
2022/01/19 11:13:13;;;;;;;14.30;6.57;;;;;;;-1.20;91.25;98119.81;5026084;28;20033;-66
2022/01/19 11:15:43;;;;;;;20.95;9.02;;;;;;;-1.10;92.06;98111.88;5026890;28;20037;-65
2022/01/19 11:18:11;;;;;;;17.87;7.03;;;;;;;-1.06;91.80;98107.53;5026006;28;20129;-68
2022/01/19 11:20:44;;;;;;;16.63;7.23;;;;;;;-1.09;91.85;98115.31;5024603;28;20052;-68
2022/01/19 11:23:30;;;;;;;16.03;5.83;;;;;;;-1.32;91.78;98110.50;5023939;28;20053;-67
2022/01/19 11:26:01;;;;;;;14.97;6.57;;;;;;;-1.42;92.05;98096.06;5016579;28;20041;-67
2022/01/19 11:28:34;;;;;;;20.70;8.07;;;;;;;-1.42;92.52;98114.13;5022759;28;20053;-67
2022/01/19 11:31:06;;;;;;;20.95;7.40;;;;;;;-1.25;92.83;98112.13;5028751;28;20041;-68
2022/01/19 11:33:39;;;;;;;13.33;6.07;;;;;;;-1.30;92.46;98097.59;5023573;28;20104;-67
2022/01/19 11:36:19;;;;;;;15.07;7.20;;;;;;;-1.34;92.80;98112.28;5020524;28;20057;-67
2022/01/19 11:38:49;;;;;;;14.23;6.70;;;;;;;-1.36;93.47;98113.16;5024825;28;20076;-66
2022/01/19 11:41:37;;;;;;;20.67;8.17;;;;;;;-1.16;93.96;98114.53;5025880;28;20057;-63
2022/01/19 11:44:06;;;;;;;22.77;7.10;;;;;;;-1.20;93.61;98107.72;5006925;28;20052;-63
2022/01/19 11:46:39;;;;;;;18.83;7.13;;;;;;;-1.27;93.78;98100.97;5024078;28;20112;-63
2022/01/19 11:49:09;;;;;;;18.25;7.82;;;;;;;-1.30;94.21;98098.47;5018489;28;20042;-64
2022/01/19 11:51:38;;;;;;;14.90;7.40;;;;;;;-1.45;94.17;98103.88;5018118;28;20049;-64
2022/01/19 11:54:10;;;;;;;23.70;8.13;;;;;;;-1.38;95.33;98089.97;5018881;28;20065;-62
2022/01/19 11:57:07;;;;;;;15.57;7.90;;;;;;;-1.52;94.77;98091.94;5017163;28;20072;-63
2022/01/19 12:00:21;;;;;;;24.00;9.27;;;;;;;-1.54;95.38;98085.06;5028041;28;20060;-63
2022/01/19 12:02:52;;;;;;;16.20;6.95;;;;;;;-1.53;95.42;98081.63;5025002;28;20111;-63
2022/01/19 12:05:30;;;;;;;15.13;6.63;;;;;;;-1.54;95.75;98067.00;5031700;28;20445;-63
2022/01/19 12:08:00;;;;;;;16.73;5.87;;;;;;;-1.70;95.80;98074.16;5029620;28;20136;-67
2022/01/19 12:10:46;;;;;;;19.80;7.63;;;;;;;-1.64;96.86;98073.22;5014113;28;20044;-62
2022/01/19 12:13:32;;;;;;;20.03;7.67;;;;;;;-1.73;96.66;98065.59;5026644;28;20069;-61
2022/01/19 12:16:03;;;;;;;13.33;6.73;;;;;;;-1.76;97.13;98068.25;5038500;28;20073;-61
2022/01/19 12:18:47;;;;;;;16.77;7.47;;;;;;;-1.81;97.55;98063.16;5022511;28;20506;-62
2022/01/19 12:21:16;;;;;;;17.67;8.32;;;;;;;-1.72;98.00;98054.44;5019092;28;20053;-63
2022/01/19 12:23:44;;;;;;;23.00;7.43;;;;;;;-1.80;97.82;98057.13;5010723;28;20120;-62
2022/01/19 12:26:12;;;;;;;18.27;7.17;;;;;;;-1.69;98.04;98050.06;5011095;28;20495;-63
2022/01/19 12:28:43;;;;;;;19.07;7.00;;;;;;;-1.56;97.77;98053.31;5018317;28;20041;-63
2022/01/19 12:31:32;;;;;;;19.80;7.93;;;;;;;-1.65;97.71;98043.16;5025401;28;20053;-65
2022/01/19 12:34:22;;;;;;;20.83;7.97;;;;;;;-1.69;97.91;98032.00;5019103;28;20077;-65
2022/01/19 12:36:53;;;;;;;25.00;9.47;;;;;;;-1.60;98.01;98024.16;5026181;28;20049;-65
2022/01/19 12:39:41;;;;;;;20.53;9.17;;;;;;;-1.49;97.36;97993.84;5027791;28;20104;-65
2022/01/19 12:42:13;;;;;;;20.97;9.67;;;;;;;-1.36;97.04;97992.75;5013421;28;20448;-67
2022/01/19 12:44:43;;;;;;;23.97;9.43;;;;;;;-1.21;96.67;97987.31;5022074;28;20041;-66
2022/01/19 12:47:48;;;;;;;27.43;11.10;;;;;;;-1.19;96.88;97989.88;5021239;28;20719;-66
2022/01/19 12:50:48;;;;;;;20.00;9.90;;;;;;;-1.28;96.38;97984.88;5024603;28;20042;-67
2022/01/19 12:53:21;;;;;;;26.40;10.47;;;;;;;-1.23;97.02;97983.06;5017771;28;20057;-65
2022/01/19 12:55:52;;;;;;;25.27;10.63;;;;;;;-1.20;96.85;97970.94;5027085;28;20033;-65
2022/01/19 12:58:30;;;;;;;27.90;10.83;;;;;;;-1.17;96.97;97957.97;5018225;28;20049;-66